createdAt,value
2023-03-22T00:00:03.081Z,13.10
2023-03-22T00:00:16.294Z,13.60
2023-03-22T00:00:29.515Z,13.50
2023-03-22T00:00:41.753Z,13.80
2023-03-22T00:00:53.257Z,13.30
2023-03-22T00:01:04.057Z,13.80
2023-03-22T00:01:16.524Z,13.50
2023-03-22T00:01:29.000Z,13.90
2023-03-22T00:01:39.827Z,14.60
2023-03-22T00:01:50.575Z,14.60
2023-03-22T00:02:01.345Z,14.40
2023-03-22T00:02:13.176Z,14.20
2023-03-22T00:02:24.908Z,13.60
2023-03-22T00:02:36.879Z,13.20
2023-03-22T00:02:47.723Z,13.30
2023-03-22T00:02:59.492Z,13.30
2023-03-22T00:03:12.222Z,13.10
2023-03-22T00:03:23.061Z,13.50
2023-03-22T00:03:34.803Z,14.20
2023-03-22T00:03:46.806Z,15.00
2023-03-22T00:03:57.640Z,14.40
2023-03-22T00:04:08.455Z,13.80
2023-03-22T00:04:20.288Z,14.00
2023-03-22T00:04:31.080Z,14.20
2023-03-22T00:04:43.377Z,14.20
2023-03-22T00:04:55.545Z,13.50
2023-03-22T00:05:06.369Z,12.80
2023-03-22T00:05:17.186Z,13.50
2023-03-22T00:05:28.972Z,14.00
2023-03-22T00:05:40.731Z,14.70
2023-03-22T00:05:51.527Z,14.90
2023-03-22T00:06:04.039Z,15.30
2023-03-22T00:06:14.864Z,15.50
2023-03-22T00:06:27.838Z,14.60
2023-03-22T00:06:38.698Z,14.30
2023-03-22T00:06:49.509Z,13.80
2023-03-22T00:07:02.658Z,14.30
2023-03-22T00:07:15.109Z,13.90
2023-03-22T00:07:26.947Z,13.90
2023-03-22T00:07:38.671Z,14.70
2023-03-22T00:07:49.468Z,15.20
2023-03-22T00:08:01.280Z,14.80
2023-03-22T00:08:12.087Z,14.50
2023-03-22T00:08:23.868Z,14.70
2023-03-22T00:08:34.598Z,14.20
2023-03-22T00:08:46.326Z,14.10
2023-03-22T00:08:58.109Z,14.50
2023-03-22T00:09:10.350Z,14.70
2023-03-22T00:09:23.058Z,14.60
2023-03-22T00:09:35.384Z,14.30
2023-03-22T00:09:47.157Z,14.60
2023-03-22T00:09:58.942Z,15.30
2023-03-22T00:10:10.728Z,15.10
2023-03-22T00:10:23.179Z,14.70
2023-03-22T00:10:36.151Z,14.20
2023-03-22T00:10:47.919Z,14.60
2023-03-22T00:10:59.768Z,14.50
2023-03-22T00:11:10.629Z,14.20
2023-03-22T00:11:23.666Z,14.60
2023-03-22T00:11:36.165Z,15.80
2023-03-22T00:11:46.994Z,15.10
2023-03-22T00:11:58.736Z,15.10
2023-03-22T00:12:09.510Z,14.70
2023-03-22T00:12:22.484Z,15.10
2023-03-22T00:12:35.714Z,14.60
2023-03-22T00:12:47.458Z,14.50
2023-03-22T00:12:59.736Z,14.00
2023-03-22T00:13:12.962Z,14.30
2023-03-22T00:13:25.199Z,14.70
2023-03-22T00:13:36.981Z,15.60
2023-03-22T00:13:47.782Z,15.90
2023-03-22T00:14:00.236Z,14.90
2023-03-22T00:14:11.040Z,14.70
2023-03-22T00:14:22.781Z,14.80
2023-03-22T00:14:36.565Z,15.00
2023-03-22T00:14:49.030Z,15.20
2023-03-22T00:14:59.809Z,15.00
2023-03-22T00:15:11.608Z,15.00
2023-03-22T00:15:22.408Z,14.90
2023-03-22T00:15:34.858Z,15.00
2023-03-22T00:15:45.754Z,14.80
2023-03-22T00:15:56.547Z,14.90
2023-03-22T00:16:09.155Z,14.90
2023-03-22T00:16:22.018Z,15.60
2023-03-22T00:16:33.931Z,16.00
2023-03-22T00:16:45.719Z,16.10
2023-03-22T00:16:57.939Z,14.80
2023-03-22T00:17:10.180Z,14.30
2023-03-22T00:17:22.669Z,15.50
2023-03-22T00:17:34.680Z,15.50
2023-03-22T00:17:47.180Z,15.00
2023-03-22T00:17:59.059Z,15.40
2023-03-22T00:18:10.632Z,15.20
2023-03-22T00:18:22.380Z,14.80
2023-03-22T00:18:34.920Z,14.60
2023-03-22T00:18:46.630Z,14.70
2023-03-22T00:18:57.456Z,14.60
2023-03-22T00:19:08.266Z,15.10
2023-03-22T00:19:19.080Z,14.90
2023-03-22T00:19:29.890Z,14.50
2023-03-22T00:19:42.429Z,14.00
2023-03-22T00:19:54.932Z,14.40
2023-03-22T00:20:06.661Z,14.50
2023-03-22T00:20:20.777Z,14.00
2023-03-22T00:20:33.139Z,14.50
2023-03-22T00:20:44.884Z,14.30
2023-03-22T00:20:55.681Z,14.60
2023-03-22T00:21:07.872Z,15.00
2023-03-22T00:21:19.622Z,15.90
2023-03-22T00:21:31.343Z,15.80
2023-03-22T00:21:44.069Z,15.10
2023-03-22T00:21:54.810Z,14.70
2023-03-22T00:22:05.635Z,15.20
2023-03-22T00:22:18.090Z,15.00
2023-03-22T00:22:28.841Z,15.60
2023-03-22T00:22:42.060Z,15.80
2023-03-22T00:22:53.809Z,15.50
2023-03-22T00:23:04.601Z,15.10
2023-03-22T00:23:16.342Z,15.00
2023-03-22T00:23:28.613Z,15.00
2023-03-22T00:23:40.342Z,14.40
2023-03-22T00:23:52.811Z,15.00
2023-03-22T00:24:05.288Z,14.90
2023-03-22T00:24:17.064Z,15.20
2023-03-22T00:24:27.875Z,14.80
2023-03-22T00:24:40.969Z,14.10
2023-03-22T00:24:51.759Z,14.10
2023-03-22T00:25:02.537Z,14.40
2023-03-22T00:25:14.271Z,14.80
2023-03-22T00:25:26.531Z,14.70
2023-03-22T00:25:38.282Z,15.30
2023-03-22T00:25:50.073Z,15.60
2023-03-22T00:26:02.070Z,15.60
2023-03-22T00:26:12.878Z,15.50
2023-03-22T00:26:24.868Z,15.00
2023-03-22T00:26:37.129Z,14.10
2023-03-22T00:26:49.611Z,14.30
2023-03-22T00:27:01.929Z,14.60
2023-03-22T00:27:12.691Z,15.30
2023-03-22T00:27:24.468Z,15.40
2023-03-22T00:27:36.212Z,15.40
2023-03-22T00:27:47.964Z,15.00
2023-03-22T00:27:58.744Z,15.10
2023-03-22T00:28:10.994Z,15.00
2023-03-22T00:28:21.744Z,15.30
2023-03-22T00:28:34.776Z,15.00
2023-03-22T00:28:48.512Z,15.70
2023-03-22T00:29:00.233Z,15.90
2023-03-22T00:29:11.994Z,16.10
2023-03-22T00:29:23.706Z,15.80
2023-03-22T00:29:34.513Z,16.40
2023-03-22T00:29:47.062Z,16.30
2023-03-22T00:29:57.866Z,16.20
2023-03-22T00:30:10.134Z,15.60
2023-03-22T00:30:20.931Z,15.90
2023-03-22T00:30:33.355Z,15.50
2023-03-22T00:30:45.105Z,15.50
2023-03-22T00:30:56.956Z,14.90
2023-03-22T00:31:08.724Z,15.90
2023-03-22T00:31:19.525Z,16.00
2023-03-22T00:31:30.357Z,15.50
2023-03-22T00:31:41.193Z,15.40
2023-03-22T00:31:52.025Z,15.20
2023-03-22T00:32:03.768Z,15.20
2023-03-22T00:32:15.980Z,15.30
2023-03-22T00:32:26.728Z,15.90
2023-03-22T00:32:39.696Z,15.90
2023-03-22T00:32:51.444Z,15.10
2023-03-22T00:33:03.175Z,15.40
2023-03-22T00:33:14.938Z,15.20
2023-03-22T00:33:26.703Z,15.70
2023-03-22T00:33:37.489Z,16.10
2023-03-22T00:33:48.298Z,16.00
2023-03-22T00:34:01.234Z,16.00
2023-03-22T00:34:13.679Z,15.50
2023-03-22T00:34:24.456Z,15.00
2023-03-22T00:34:36.942Z,14.90
2023-03-22T00:34:47.748Z,14.90
2023-03-22T00:34:59.524Z,15.00
2023-03-22T00:35:11.265Z,14.90
2023-03-22T00:35:23.047Z,14.80
2023-03-22T00:35:35.511Z,15.90
2023-03-22T00:35:48.011Z,16.30
2023-03-22T00:35:59.756Z,16.10
2023-03-22T00:36:10.586Z,15.50
2023-03-22T00:36:21.592Z,16.00
2023-03-22T00:36:32.370Z,15.20
2023-03-22T00:36:44.077Z,15.50
2023-03-22T00:36:57.038Z,16.10
2023-03-22T00:37:07.891Z,16.00
2023-03-22T00:37:19.856Z,15.80
2023-03-22T00:37:32.308Z,14.90
2023-03-22T00:37:43.104Z,14.60
2023-03-22T00:37:54.855Z,15.00
2023-03-22T00:38:06.849Z,14.80
2023-03-22T00:38:20.641Z,14.70
2023-03-22T00:38:41.676Z,14.80
2023-03-22T00:38:49.992Z,14.30
2023-03-22T00:39:00.829Z,14.70
2023-03-22T00:39:12.723Z,14.80
2023-03-22T00:39:23.547Z,15.40
2023-03-22T00:39:34.317Z,14.70
2023-03-22T00:39:46.838Z,14.40
2023-03-22T00:39:58.571Z,14.80
2023-03-22T00:40:09.357Z,14.40
2023-03-22T00:40:22.308Z,14.30
2023-03-22T00:40:35.544Z,14.30
2023-03-22T00:40:46.341Z,15.30
2023-03-22T00:41:00.052Z,15.70
2023-03-22T00:41:12.317Z,15.40
2023-03-22T00:41:26.111Z,14.70
2023-03-22T00:41:37.843Z,15.20
2023-03-22T00:41:49.598Z,15.20
2023-03-22T00:42:01.827Z,14.80
2023-03-22T00:42:14.509Z,14.30
2023-03-22T00:42:25.310Z,14.50
2023-03-22T00:42:37.520Z,14.70
2023-03-22T00:42:50.750Z,15.40
2023-03-22T00:43:01.532Z,14.80
2023-03-22T00:43:14.100Z,14.70
2023-03-22T00:43:26.539Z,15.70
2023-03-22T00:43:37.380Z,15.40
2023-03-22T00:43:49.841Z,15.60
2023-03-22T00:44:02.347Z,15.10
2023-03-22T00:44:13.171Z,15.00
2023-03-22T00:44:25.609Z,14.20
2023-03-22T00:44:38.577Z,14.70
2023-03-22T00:44:50.864Z,14.10
2023-03-22T00:45:02.610Z,14.70
2023-03-22T00:45:15.132Z,15.30
2023-03-22T00:45:27.560Z,15.50
2023-03-22T00:45:38.341Z,14.70
2023-03-22T00:45:50.153Z,15.10
2023-03-22T00:46:02.870Z,14.80
2023-03-22T00:46:14.655Z,14.90
2023-03-22T00:46:25.536Z,15.00
2023-03-22T00:46:37.289Z,14.60
2023-03-22T00:46:49.805Z,14.60
2023-03-22T00:47:01.521Z,14.40
2023-03-22T00:47:13.292Z,15.70
2023-03-22T00:47:25.043Z,16.00
2023-03-22T00:47:37.289Z,15.60
2023-03-22T00:47:49.766Z,15.80
2023-03-22T00:48:00.619Z,15.30
2023-03-22T00:48:12.479Z,15.50
2023-03-22T00:48:24.808Z,15.90
2023-03-22T00:48:35.691Z,16.30
2023-03-22T00:48:46.488Z,15.80
2023-03-22T00:48:57.284Z,15.70
2023-03-22T00:49:09.028Z,15.50
2023-03-22T00:49:21.998Z,15.20
2023-03-22T00:49:34.501Z,15.90
2023-03-22T00:49:46.382Z,15.70
2023-03-22T00:49:58.157Z,15.40
2023-03-22T00:50:09.903Z,15.60
2023-03-22T00:50:21.868Z,15.70
2023-03-22T00:50:32.651Z,16.00
2023-03-22T00:50:43.421Z,16.20
2023-03-22T00:50:55.244Z,17.00
2023-03-22T00:51:06.996Z,17.00
2023-03-22T00:51:17.765Z,16.80
2023-03-22T00:51:30.252Z,16.70
2023-03-22T00:51:41.013Z,16.90
2023-03-22T00:51:53.270Z,17.10
2023-03-22T00:52:04.132Z,16.90
2023-03-22T00:52:14.966Z,16.50
2023-03-22T00:52:26.682Z,16.40
2023-03-22T00:52:37.501Z,16.50
2023-03-22T00:52:48.300Z,15.80
2023-03-22T00:53:00.097Z,15.90
2023-03-22T00:53:13.229Z,15.80
2023-03-22T00:53:25.061Z,16.00
2023-03-22T00:53:36.886Z,17.00
2023-03-22T00:53:48.633Z,16.70
2023-03-22T00:54:00.410Z,16.60
2023-03-22T00:54:11.185Z,16.70
2023-03-22T00:54:22.001Z,16.60
2023-03-22T00:54:35.201Z,15.50
2023-03-22T00:54:45.998Z,15.90
2023-03-22T00:54:57.787Z,16.00
2023-03-22T00:55:08.628Z,16.60
2023-03-22T00:55:21.066Z,17.10
2023-03-22T00:55:33.554Z,17.70
2023-03-22T00:55:46.043Z,17.30
2023-03-22T00:55:56.815Z,16.80
2023-03-22T00:56:08.531Z,16.30
2023-03-22T00:56:19.293Z,16.60
2023-03-22T00:56:30.075Z,17.40
2023-03-22T00:56:41.834Z,17.60
2023-03-22T00:56:55.044Z,16.40
2023-03-22T00:57:06.827Z,16.20
2023-03-22T00:57:19.316Z,16.50
2023-03-22T00:57:31.752Z,16.60
2023-03-22T00:57:43.724Z,16.80
2023-03-22T00:57:56.206Z,16.90
2023-03-22T00:58:08.682Z,17.80
2023-03-22T00:58:21.939Z,17.90
2023-03-22T00:58:32.703Z,17.50
2023-03-22T00:58:44.497Z,17.40
2023-03-22T00:58:56.975Z,17.10
2023-03-22T00:59:08.677Z,16.20
2023-03-22T00:59:19.477Z,16.00
2023-03-22T00:59:31.296Z,16.10
2023-03-22T00:59:42.110Z,16.50
2023-03-22T00:59:54.813Z,16.80
2023-03-22T01:00:07.280Z,17.20
2023-03-22T01:00:18.078Z,16.40
2023-03-22T01:00:28.886Z,16.20
2023-03-22T01:00:41.781Z,15.80
2023-03-22T01:00:52.697Z,15.20
2023-03-22T01:01:04.463Z,15.20
2023-03-22T01:01:15.482Z,15.50
2023-03-22T01:01:27.999Z,16.30
2023-03-22T01:01:40.244Z,16.40
2023-03-22T01:01:51.038Z,16.60
2023-03-22T01:02:03.564Z,17.20
2023-03-22T01:02:15.835Z,16.20
2023-03-22T01:02:26.677Z,15.70
2023-03-22T01:02:38.492Z,16.20
2023-03-22T01:02:50.925Z,16.30
2023-03-22T01:03:03.364Z,16.40
2023-03-22T01:03:14.243Z,16.20
2023-03-22T01:03:26.520Z,16.00
2023-03-22T01:03:38.327Z,16.60
2023-03-22T01:03:50.152Z,17.30
2023-03-22T01:04:02.779Z,16.50
2023-03-22T01:04:15.968Z,15.40
2023-03-22T01:04:26.783Z,15.80
2023-03-22T01:04:37.615Z,16.70
2023-03-22T01:04:48.374Z,16.50
2023-03-22T01:04:59.239Z,16.60
2023-03-22T01:05:11.031Z,16.20
2023-03-22T01:05:22.858Z,16.50
2023-03-22T01:05:34.647Z,16.50
2023-03-22T01:05:48.554Z,16.30
2023-03-22T01:06:02.342Z,16.50
2023-03-22T01:06:14.612Z,16.50
2023-03-22T01:06:26.345Z,15.90
2023-03-22T01:06:37.164Z,15.90
2023-03-22T01:06:49.471Z,16.60
2023-03-22T01:07:00.365Z,16.10
2023-03-22T01:07:13.122Z,16.20
2023-03-22T01:07:24.040Z,16.40
2023-03-22T01:07:34.836Z,16.40
2023-03-22T01:07:45.652Z,15.80
2023-03-22T01:07:58.424Z,16.10
2023-03-22T01:08:11.153Z,15.90
2023-03-22T01:08:22.994Z,15.80
2023-03-22T01:08:33.780Z,16.30
2023-03-22T01:08:46.361Z,15.80
2023-03-22T01:08:58.092Z,15.90
2023-03-22T01:09:08.854Z,15.50
2023-03-22T01:09:21.175Z,15.70
2023-03-22T01:09:34.144Z,15.80
2023-03-22T01:09:45.856Z,15.80
2023-03-22T01:09:56.689Z,15.90
2023-03-22T01:10:10.427Z,15.70
2023-03-22T01:10:22.173Z,15.00
2023-03-22T01:10:32.971Z,15.50
2023-03-22T01:10:46.184Z,15.90
2023-03-22T01:10:59.905Z,16.10
2023-03-22T01:11:11.931Z,15.90
2023-03-22T01:11:23.704Z,15.90
2023-03-22T01:11:34.606Z,15.40
2023-03-22T01:11:45.388Z,15.60
2023-03-22T01:11:58.131Z,15.70
2023-03-22T01:12:08.884Z,15.20
2023-03-22T01:12:19.696Z,15.80
2023-03-22T01:12:32.105Z,15.70
2023-03-22T01:12:42.888Z,15.90
2023-03-22T01:12:55.334Z,15.70
2023-03-22T01:13:07.067Z,15.60
2023-03-22T01:13:18.852Z,15.00
2023-03-22T01:13:31.342Z,15.20
2023-03-22T01:13:42.373Z,15.20
2023-03-22T01:13:53.183Z,15.50
2023-03-22T01:14:05.454Z,16.00
2023-03-22T01:14:17.732Z,16.40
2023-03-22T01:14:29.018Z,15.90
2023-03-22T01:14:40.793Z,16.30
2023-03-22T01:14:52.554Z,15.90
2023-03-22T01:15:03.372Z,15.70
2023-03-22T01:15:16.607Z,15.40
2023-03-22T01:15:27.437Z,15.70
2023-03-22T01:15:38.233Z,16.00
2023-03-22T01:15:50.732Z,15.60
2023-03-22T01:16:01.551Z,15.60
2023-03-22T01:16:14.848Z,15.80
2023-03-22T01:16:27.474Z,15.70
2023-03-22T01:16:39.260Z,16.40
2023-03-22T01:16:51.124Z,16.00
2023-03-22T01:17:02.885Z,16.40
2023-03-22T01:17:13.714Z,16.30
2023-03-22T01:17:25.484Z,16.00
2023-03-22T01:17:37.201Z,15.60
2023-03-22T01:17:48.948Z,15.80
2023-03-22T01:18:01.447Z,15.60
2023-03-22T01:18:12.287Z,15.80
2023-03-22T01:18:23.073Z,15.30
2023-03-22T01:18:34.825Z,15.20
2023-03-22T01:18:46.546Z,15.40
2023-03-22T01:18:59.015Z,15.50
2023-03-22T01:19:10.762Z,15.50
2023-03-22T01:19:21.549Z,15.60
2023-03-22T01:19:33.336Z,15.70
2023-03-22T01:19:45.803Z,15.20
2023-03-22T01:19:58.254Z,15.30
2023-03-22T01:20:09.046Z,15.70
2023-03-22T01:20:19.839Z,16.20
2023-03-22T01:20:31.554Z,16.10
2023-03-22T01:20:42.510Z,15.50
2023-03-22T01:20:53.304Z,15.30
2023-03-22T01:21:04.053Z,15.50
2023-03-22T01:21:14.865Z,15.80
2023-03-22T01:21:25.605Z,15.70
2023-03-22T01:21:37.458Z,15.40
2023-03-22T01:21:48.255Z,14.70
2023-03-22T01:22:00.304Z,15.30
2023-03-22T01:22:11.170Z,15.40
2023-03-22T01:22:21.961Z,16.00
2023-03-22T01:22:32.725Z,16.00
2023-03-22T01:22:43.475Z,15.60
2023-03-22T01:22:56.716Z,14.90
2023-03-22T01:23:09.197Z,15.10
2023-03-22T01:23:21.687Z,15.90
2023-03-22T01:23:33.424Z,15.10
2023-03-22T01:23:45.935Z,15.20
2023-03-22T01:23:56.705Z,14.70
2023-03-22T01:24:08.431Z,15.00
2023-03-22T01:24:19.214Z,14.60
2023-03-22T01:24:32.227Z,14.80
2023-03-22T01:24:42.975Z,14.50
2023-03-22T01:24:54.656Z,14.70
2023-03-22T01:25:06.487Z,15.60
2023-03-22T01:25:18.239Z,16.00
2023-03-22T01:25:30.556Z,14.90
2023-03-22T01:25:43.266Z,14.70
2023-03-22T01:25:54.094Z,15.30
2023-03-22T01:26:06.805Z,15.60
2023-03-22T01:26:20.057Z,15.70
2023-03-22T01:26:33.283Z,16.20
2023-03-22T01:26:44.064Z,16.50
2023-03-22T01:26:57.533Z,16.50
2023-03-22T01:27:09.766Z,15.60
2023-03-22T01:27:20.516Z,15.30
2023-03-22T01:27:31.315Z,15.60
2023-03-22T01:27:42.115Z,15.80
2023-03-22T01:27:52.878Z,15.30
2023-03-22T01:28:04.618Z,15.40
2023-03-22T01:28:17.585Z,15.00
2023-03-22T01:28:30.855Z,15.10
2023-03-22T01:28:44.095Z,15.80
2023-03-22T01:28:55.846Z,15.40
2023-03-22T01:29:08.850Z,14.80
2023-03-22T01:29:20.797Z,15.00
2023-03-22T01:29:33.255Z,15.90
2023-03-22T01:29:47.017Z,15.70
2023-03-22T01:29:57.820Z,14.20
2023-03-22T01:30:08.611Z,14.40
2023-03-22T01:30:21.096Z,14.10
2023-03-22T01:30:32.863Z,14.60
2023-03-22T01:30:46.152Z,14.10
2023-03-22T01:30:56.990Z,14.10
2023-03-22T01:31:09.527Z,14.60
2023-03-22T01:31:20.374Z,15.60
2023-03-22T01:31:31.234Z,15.50
2023-03-22T01:31:41.990Z,15.60
2023-03-22T01:31:53.707Z,14.80
2023-03-22T01:32:04.477Z,14.10
2023-03-22T01:32:16.206Z,13.90
2023-03-22T01:32:27.959Z,13.90
2023-03-22T01:32:39.537Z,14.10
2023-03-22T01:32:51.277Z,15.00
2023-03-22T01:33:03.757Z,15.50
2023-03-22T01:33:16.230Z,15.00
2023-03-22T01:33:29.946Z,14.70
2023-03-22T01:33:40.730Z,14.80
2023-03-22T01:33:51.524Z,15.90
2023-03-22T01:34:02.328Z,16.10
2023-03-22T01:34:13.088Z,15.80
2023-03-22T01:34:23.913Z,15.40
2023-03-22T01:34:35.682Z,15.30
2023-03-22T01:34:46.467Z,15.10
2023-03-22T01:34:58.732Z,15.80
2023-03-22T01:35:09.528Z,15.80
2023-03-22T01:35:21.824Z,15.60
2023-03-22T01:35:34.564Z,14.90
2023-03-22T01:35:45.479Z,14.60
2023-03-22T01:35:56.320Z,14.70
2023-03-22T01:36:08.045Z,15.20
2023-03-22T01:36:18.877Z,15.60
2023-03-22T01:36:31.337Z,15.00
2023-03-22T01:36:42.119Z,14.80
2023-03-22T01:36:52.963Z,14.60
2023-03-22T01:37:04.745Z,15.10
2023-03-22T01:37:15.579Z,15.50
2023-03-22T01:37:28.060Z,15.50
2023-03-22T01:37:40.350Z,14.60
2023-03-22T01:37:52.221Z,14.30
2023-03-22T01:38:04.026Z,14.20
2023-03-22T01:38:14.820Z,14.40
2023-03-22T01:38:25.642Z,14.30
2023-03-22T01:38:38.932Z,14.60
2023-03-22T01:38:51.371Z,14.50
2023-03-22T01:39:03.141Z,14.30
2023-03-22T01:39:14.860Z,14.60
2023-03-22T01:39:27.102Z,14.70
2023-03-22T01:39:39.590Z,14.60
2023-03-22T01:39:51.300Z,14.50
2023-03-22T01:40:02.102Z,14.60
2023-03-22T01:40:12.950Z,15.00
2023-03-22T01:40:23.828Z,15.40
2023-03-22T01:40:35.629Z,15.90
2023-03-22T01:40:47.392Z,16.00
2023-03-22T01:40:58.159Z,14.80
2023-03-22T01:41:09.020Z,14.60
2023-03-22T01:41:19.797Z,14.30
2023-03-22T01:41:30.611Z,14.30
2023-03-22T01:41:41.473Z,14.60
2023-03-22T01:41:52.280Z,15.00
2023-03-22T01:42:04.259Z,15.60
2023-03-22T01:42:15.035Z,15.20
2023-03-22T01:42:25.843Z,15.20
2023-03-22T01:42:37.655Z,15.30
2023-03-22T01:42:50.120Z,15.40
2023-03-22T01:43:02.640Z,15.00
2023-03-22T01:43:13.457Z,14.70
2023-03-22T01:43:24.217Z,14.70
2023-03-22T01:43:35.031Z,15.10
2023-03-22T01:43:45.834Z,15.20
2023-03-22T01:43:58.056Z,15.20
2023-03-22T01:44:10.007Z,14.70
2023-03-22T01:44:20.829Z,15.00
2023-03-22T01:44:32.576Z,14.70
2023-03-22T01:44:43.383Z,14.50
2023-03-22T01:44:54.177Z,15.00
2023-03-22T01:45:05.936Z,15.30
2023-03-22T01:45:18.648Z,15.00
2023-03-22T01:45:31.395Z,14.30
2023-03-22T01:45:43.667Z,14.40
2023-03-22T01:45:55.590Z,15.40
2023-03-22T01:46:06.383Z,15.40
2023-03-22T01:46:18.235Z,14.50
2023-03-22T01:46:30.015Z,14.20
2023-03-22T01:46:42.793Z,15.00
2023-03-22T01:46:55.305Z,15.10
2023-03-22T01:47:06.071Z,14.80
2023-03-22T01:47:18.350Z,14.90
2023-03-22T01:47:29.175Z,14.70
2023-03-22T01:47:41.479Z,14.90
2023-03-22T01:47:52.329Z,14.70
2023-03-22T01:48:03.156Z,14.70
2023-03-22T01:48:14.072Z,14.90
2023-03-22T01:48:25.858Z,15.00
2023-03-22T01:48:36.635Z,14.70
2023-03-22T01:48:48.473Z,13.60
2023-03-22T01:49:00.307Z,13.60
2023-03-22T01:49:12.864Z,13.60
2023-03-22T01:49:24.759Z,13.40
2023-03-22T01:49:35.526Z,14.20
2023-03-22T01:49:46.317Z,14.30
2023-03-22T01:49:58.757Z,14.20
2023-03-22T01:50:11.245Z,13.90
2023-03-22T01:50:21.987Z,15.10
2023-03-22T01:50:32.769Z,14.80
2023-03-22T01:50:45.504Z,14.70
2023-03-22T01:50:56.279Z,14.00
2023-03-22T01:51:08.041Z,14.50
2023-03-22T01:51:18.843Z,15.30
2023-03-22T01:51:31.306Z,15.00
2023-03-22T01:51:44.565Z,14.60
2023-03-22T01:51:55.397Z,14.40
2023-03-22T01:52:07.138Z,14.90
2023-03-22T01:52:19.390Z,15.00
2023-03-22T01:52:31.619Z,15.50
2023-03-22T01:52:43.377Z,15.00
2023-03-22T01:52:55.346Z,14.30
2023-03-22T01:53:07.824Z,13.80
2023-03-22T01:53:19.636Z,14.30
2023-03-22T01:53:30.418Z,14.40
2023-03-22T01:53:43.659Z,13.90
2023-03-22T01:53:54.409Z,13.90
2023-03-22T01:54:06.621Z,13.90
2023-03-22T01:54:17.410Z,14.80
2023-03-22T01:54:30.648Z,14.90
2023-03-22T01:54:43.784Z,15.10
2023-03-22T01:54:55.338Z,14.60
2023-03-22T01:55:07.096Z,14.20
2023-03-22T01:55:18.847Z,14.40
2023-03-22T01:55:30.599Z,14.90
2023-03-22T01:55:41.392Z,15.40
2023-03-22T01:55:53.120Z,15.20
2023-03-22T01:56:03.932Z,15.10
2023-03-22T01:56:16.109Z,14.70
2023-03-22T01:56:27.851Z,14.20
2023-03-22T01:56:40.331Z,13.90
2023-03-22T01:56:53.357Z,14.00
2023-03-22T01:57:05.645Z,13.90
2023-03-22T01:57:18.875Z,14.10
2023-03-22T01:57:31.198Z,14.20
2023-03-22T01:57:42.015Z,14.40
2023-03-22T01:57:52.800Z,13.90
2023-03-22T01:58:03.638Z,14.00
2023-03-22T01:58:16.156Z,13.80
2023-03-22T01:58:26.901Z,14.70
2023-03-22T01:58:38.697Z,14.80
2023-03-22T01:58:49.485Z,14.80
2023-03-22T01:59:01.198Z,14.10
2023-03-22T01:59:13.669Z,14.60
2023-03-22T01:59:24.471Z,14.50
2023-03-22T01:59:37.690Z,14.00
2023-03-22T01:59:50.645Z,13.70
2023-03-22T02:00:02.950Z,13.50
2023-03-22T02:00:13.707Z,13.10
2023-03-22T02:00:25.459Z,13.70
2023-03-22T02:00:37.468Z,14.30
2023-03-22T02:00:48.369Z,14.80
2023-03-22T02:00:59.113Z,14.60
2023-03-22T02:01:12.431Z,13.50
2023-03-22T02:01:23.276Z,13.30
2023-03-22T02:01:35.120Z,13.50
2023-03-22T02:01:45.987Z,14.00
2023-03-22T02:01:56.812Z,14.00
2023-03-22T02:02:08.542Z,14.60
2023-03-22T02:02:21.286Z,14.50
2023-03-22T02:02:33.077Z,14.50
2023-03-22T02:02:43.991Z,13.90
2023-03-22T02:02:54.807Z,13.30
2023-03-22T02:03:06.642Z,13.10
2023-03-22T02:03:17.420Z,13.30
2023-03-22T02:03:30.661Z,14.00
2023-03-22T02:03:41.418Z,13.80
2023-03-22T02:03:52.272Z,14.30
2023-03-22T02:04:03.071Z,14.40
2023-03-22T02:04:14.830Z,14.00
2023-03-22T02:04:25.611Z,13.40
2023-03-22T02:04:37.912Z,13.70
2023-03-22T02:04:48.707Z,14.50
2023-03-22T02:05:00.541Z,13.80
2023-03-22T02:05:12.276Z,13.90
2023-03-22T02:05:23.070Z,13.90
2023-03-22T02:05:33.900Z,13.70
2023-03-22T02:05:45.860Z,13.40
2023-03-22T02:05:59.105Z,13.30
2023-03-22T02:06:10.836Z,13.50
2023-03-22T02:06:21.626Z,14.60
2023-03-22T02:06:34.152Z,13.90
2023-03-22T02:06:45.938Z,13.90
2023-03-22T02:06:56.713Z,14.10
2023-03-22T02:07:07.541Z,14.10
2023-03-22T02:07:18.362Z,13.60
2023-03-22T02:07:29.228Z,13.70
2023-03-22T02:07:39.993Z,14.40
2023-03-22T02:07:51.752Z,14.70
2023-03-22T02:08:02.502Z,14.50
2023-03-22T02:08:14.261Z,13.70
2023-03-22T02:08:26.038Z,14.30
2023-03-22T02:08:38.502Z,14.20
2023-03-22T02:08:50.263Z,14.30
2023-03-22T02:09:02.291Z,13.90
2023-03-22T02:09:13.143Z,13.60
2023-03-22T02:09:24.001Z,13.30
2023-03-22T02:09:35.834Z,13.30
2023-03-22T02:09:46.614Z,14.00
2023-03-22T02:09:59.093Z,14.30
2023-03-22T02:10:11.562Z,14.60
2023-03-22T02:10:23.552Z,13.50
2023-03-22T02:10:36.967Z,13.40
2023-03-22T02:10:47.766Z,13.20
2023-03-22T02:10:58.581Z,13.50
2023-03-22T02:11:10.819Z,13.80
2023-03-22T02:11:23.542Z,13.00
2023-03-22T02:11:36.074Z,12.90
2023-03-22T02:11:48.313Z,12.70
2023-03-22T02:12:00.589Z,12.20
2023-03-22T02:12:12.352Z,12.40
2023-03-22T02:12:24.096Z,12.50
2023-03-22T02:12:36.586Z,12.70
2023-03-22T02:12:47.362Z,12.80
2023-03-22T02:12:58.133Z,13.10
2023-03-22T02:13:08.966Z,13.50
2023-03-22T02:13:21.464Z,13.40
2023-03-22T02:13:33.192Z,12.90
2023-03-22T02:13:44.941Z,13.20
2023-03-22T02:13:57.413Z,13.20
2023-03-22T02:14:09.936Z,13.70
2023-03-22T02:14:23.351Z,13.40
2023-03-22T02:14:35.153Z,13.10
2023-03-22T02:14:45.943Z,13.50
2023-03-22T02:14:57.705Z,13.20
2023-03-22T02:15:08.486Z,12.90
2023-03-22T02:15:20.817Z,12.70
2023-03-22T02:15:32.831Z,12.90
2023-03-22T02:15:44.597Z,12.90
2023-03-22T02:15:56.464Z,13.40
2023-03-22T02:16:09.247Z,13.60
2023-03-22T02:16:21.061Z,13.30
2023-03-22T02:16:33.324Z,12.60
2023-03-22T02:16:44.092Z,13.00
2023-03-22T02:16:58.376Z,13.60
2023-03-22T02:17:10.074Z,13.40
2023-03-22T02:17:22.582Z,13.50
2023-03-22T02:17:33.383Z,13.30
2023-03-22T02:17:45.135Z,13.30
2023-03-22T02:17:56.912Z,13.00
2023-03-22T02:18:08.670Z,13.20
2023-03-22T02:18:20.515Z,13.50
2023-03-22T02:18:32.224Z,13.50
2023-03-22T02:18:43.954Z,13.60
2023-03-22T02:18:56.427Z,13.50
2023-03-22T02:19:08.169Z,12.90
2023-03-22T02:19:18.970Z,13.40
2023-03-22T02:19:31.204Z,13.70
2023-03-22T02:19:41.951Z,13.80
2023-03-22T02:19:55.196Z,12.90
2023-03-22T02:20:07.683Z,12.80
2023-03-22T02:20:19.474Z,13.20
2023-03-22T02:20:30.305Z,13.30
2023-03-22T02:20:42.040Z,12.50
2023-03-22T02:20:54.534Z,12.90
2023-03-22T02:21:05.321Z,12.80
2023-03-22T02:21:17.853Z,13.00
2023-03-22T02:21:28.599Z,13.20
2023-03-22T02:21:41.102Z,13.00
2023-03-22T02:21:52.863Z,13.30
2023-03-22T02:22:03.616Z,13.40
2023-03-22T02:22:14.399Z,13.20
2023-03-22T02:22:26.142Z,13.40
2023-03-22T02:22:36.963Z,13.60
2023-03-22T02:22:47.775Z,13.30
2023-03-22T02:22:59.765Z,13.50
2023-03-22T02:23:10.565Z,12.90
2023-03-22T02:23:21.398Z,12.70
2023-03-22T02:23:33.213Z,13.00
2023-03-22T02:23:44.037Z,13.50
2023-03-22T02:23:54.859Z,13.70
2023-03-22T02:24:05.646Z,13.30
2023-03-22T02:24:16.406Z,13.40
2023-03-22T02:24:28.141Z,13.70
2023-03-22T02:24:38.877Z,13.70
2023-03-22T02:24:51.336Z,13.90
2023-03-22T02:25:03.091Z,13.60
2023-03-22T02:25:15.344Z,13.10
2023-03-22T02:25:27.591Z,13.60
2023-03-22T02:25:38.430Z,13.20
2023-03-22T02:25:50.885Z,12.80
2023-03-22T02:26:02.643Z,12.90
2023-03-22T02:26:13.423Z,13.00
2023-03-22T02:26:26.683Z,14.00
2023-03-22T02:26:38.500Z,13.90
2023-03-22T02:26:50.185Z,13.50
2023-03-22T02:27:02.467Z,12.60
2023-03-22T02:27:14.985Z,13.10
2023-03-22T02:27:25.799Z,12.70
2023-03-22T02:27:36.609Z,12.80
2023-03-22T02:27:47.457Z,12.20
2023-03-22T02:27:59.186Z,12.50
2023-03-22T02:28:10.935Z,12.80
2023-03-22T02:28:22.743Z,13.30
2023-03-22T02:28:35.282Z,13.40
2023-03-22T02:28:46.057Z,13.30
2023-03-22T02:28:56.886Z,13.40
2023-03-22T02:29:09.638Z,13.70
2023-03-22T02:29:21.396Z,13.10
2023-03-22T02:29:33.637Z,13.00
2023-03-22T02:29:46.386Z,13.30
2023-03-22T02:29:58.686Z,13.60
2023-03-22T02:30:10.416Z,13.50
2023-03-22T02:30:22.160Z,13.60
2023-03-22T02:30:33.967Z,13.10
2023-03-22T02:30:46.437Z,12.60
2023-03-22T02:30:57.249Z,12.80
2023-03-22T02:31:09.593Z,13.10